Time;durP1;ratioP1;P1;durP2;ratioP2;P2;SDS_P1;SDS_P2;PMS_P1;PMS_P2;Temp;Humidity;BMP_temperature;BMP_pressure;BME280_temperature;BME280_humidity;BME280_pressure;Samples;Min_cycle;Max_cycle;Signal;HPM_P1;HPM_P2
2023/07/19 00:01:48;;;;;;;2.58;1.38;;;15.80;99.90;;;;;;5054402;28;20427;-66
2023/07/19 00:04:14;;;;;;;1.90;0.90;;;15.80;99.90;;;;;;5054745;28;20036;-66
2023/07/19 00:06:40;;;;;;;2.05;1.20;;;15.70;99.90;;;;;;5071307;28;20565;-66
2023/07/19 00:09:06;;;;;;;1.95;1.10;;;15.70;99.90;;;;;;5088995;28;20123;-66
2023/07/19 00:11:31;;;;;;;2.05;1.30;;;15.60;99.90;;;;;;5071369;28;20066;-66
2023/07/19 00:13:57;;;;;;;2.65;1.48;;;15.60;99.90;;;;;;5071076;28;20047;-67
2023/07/19 00:16:23;;;;;;;2.90;1.50;;;15.60;99.90;;;;;;5088096;28;20040;-66
2023/07/19 00:18:49;;;;;;;1.48;1.02;;;15.60;99.90;;;;;;5089247;28;20043;-66
2023/07/19 00:21:15;;;;;;;4.00;1.52;;;15.60;99.90;;;;;;5071199;28;20484;-66
2023/07/19 00:23:42;;;;;;;2.63;1.48;;;15.50;99.90;;;;;;5088936;28;20093;-66
2023/07/19 00:26:08;;;;;;;2.80;1.35;;;15.50;99.90;;;;;;5054138;28;20496;-67
2023/07/19 00:28:34;;;;;;;4.60;1.85;;;15.50;99.90;;;;;;5071217;28;20075;-67
2023/07/19 00:31:04;;;;;;;3.03;1.27;;;15.40;99.90;;;;;;5070548;28;20040;-67
2023/07/19 00:33:30;;;;;;;;;;;15.40;99.90;;;;;;5071517;28;20555;-66
2023/07/19 00:35:55;;;;;;;2.72;1.30;;;15.40;99.90;;;;;;5071097;28;20011;-67
2023/07/19 00:38:21;;;;;;;3.95;1.38;;;15.40;99.90;;;;;;5070451;28;20123;-66
2023/07/19 00:40:51;;;;;;;5.25;1.70;;;15.40;99.90;;;;;;5071011;28;20044;-67
2023/07/19 00:43:17;;;;;;;;;;;15.50;99.90;;;;;;5089668;28;20051;-67
2023/07/19 00:45:50;;;;;;;3.58;1.55;;;15.50;99.90;;;;;;5070546;28;20296;-67
2023/07/19 00:48:17;;;;;;;1.83;1.13;;;15.50;99.90;;;;;;5070961;28;20040;-67
2023/07/19 00:50:44;;;;;;;2.55;1.35;;;15.50;99.90;;;;;;5053631;28;20074;-67
2023/07/19 00:53:13;;;;;;;2.78;1.20;;;15.50;99.90;;;;;;5079762;28;20036;-67
2023/07/19 00:55:40;;;;;;;3.08;1.60;;;15.50;99.90;;;;;;5051284;28;20044;-67
2023/07/19 00:58:07;;;;;;;2.65;1.20;;;15.50;99.90;;;;;;5068286;28;20059;-67
2023/07/19 01:00:33;;;;;;;2.28;1.45;;;15.60;99.90;;;;;;5067330;28;20044;-67
2023/07/19 01:02:59;;;;;;;1.48;0.93;;;15.60;99.90;;;;;;5089108;28;20043;-67
2023/07/19 01:05:27;;;;;;;3.05;1.52;;;15.70;99.90;;;;;;5088378;28;20409;-66
2023/07/19 01:07:53;;;;;;;2.58;1.48;;;15.70;99.90;;;;;;5070686;28;20476;-67
2023/07/19 01:10:20;;;;;;;2.00;1.20;;;15.80;99.90;;;;;;5071038;28;20131;-67
2023/07/19 01:13:02;;;;;;;2.38;1.58;;;15.80;99.90;;;;;;5053487;28;20032;-67
2023/07/19 01:15:28;;;;;;;2.78;1.60;;;15.90;99.90;;;;;;5088969;28;20466;-67
2023/07/19 01:17:54;;;;;;;1.85;0.90;;;16.00;99.90;;;;;;5070721;28;20040;-67
2023/07/19 01:20:19;;;;;;;5.97;1.45;;;16.00;99.90;;;;;;5088164;28;20047;-67
2023/07/19 01:22:46;;;;;;;2.92;1.48;;;16.00;99.90;;;;;;5070689;28;20460;-67
2023/07/19 01:25:12;;;;;;;2.00;1.08;;;16.00;99.90;;;;;;5053552;28;20036;-67
2023/07/19 01:27:39;;;;;;;1.85;1.30;;;16.00;99.90;;;;;;5072966;28;20044;-67
2023/07/19 01:30:06;;;;;;;2.95;1.13;;;16.10;99.90;;;;;;5074463;28;20040;-67
2023/07/19 01:32:32;;;;;;;2.70;1.40;;;16.10;99.90;;;;;;5074373;28;20479;-67
2023/07/19 01:34:58;;;;;;;4.85;1.10;;;16.10;99.90;;;;;;5091774;28;20044;-67
2023/07/19 01:37:24;;;;;;;4.80;1.23;;;16.10;99.90;;;;;;5074141;28;20127;-67
2023/07/19 01:39:50;;;;;;;2.05;1.13;;;16.10;99.90;;;;;;5073355;28;20189;-67
2023/07/19 01:42:16;;;;;;;3.47;1.52;;;16.10;99.90;;;;;;5092074;28;20040;-67
2023/07/19 01:44:43;;;;;;;2.60;1.10;;;16.10;99.90;;;;;;5073811;28;20035;-67
2023/07/19 01:47:09;;;;;;;4.25;1.65;;;16.10;99.90;;;;;;5056826;28;20128;-67
2023/07/19 01:49:35;;;;;;;2.50;0.98;;;16.10;99.90;;;;;;5057492;28;20123;-67
2023/07/19 01:52:01;;;;;;;2.08;1.20;;;16.10;99.90;;;;;;5074054;28;20028;-67
2023/07/19 01:54:26;;;;;;;2.42;1.33;;;16.10;99.90;;;;;;5073152;28;20487;-67
2023/07/19 01:56:52;;;;;;;3.05;1.40;;;16.10;99.90;;;;;;5073624;28;20046;-67
2023/07/19 01:59:18;;;;;;;2.75;1.30;;;16.10;99.90;;;;;;5091866;28;20040;-67
2023/07/19 02:01:44;;;;;;;2.83;1.30;;;16.10;99.90;;;;;;5073132;28;20039;-67
2023/07/19 02:04:10;;;;;;;4.05;1.90;;;16.10;99.90;;;;;;5091821;28;20051;-67
2023/07/19 02:06:36;;;;;;;2.35;1.30;;;16.10;99.90;;;;;;5069738;28;20505;-67
2023/07/19 02:09:01;;;;;;;5.07;1.42;;;16.10;99.90;;;;;;5070367;28;20048;-67
2023/07/19 02:11:27;;;;;;;2.30;1.42;;;16.10;99.90;;;;;;5073434;28;20040;-67
2023/07/19 02:13:53;;;;;;;3.35;1.75;;;16.10;99.90;;;;;;5073588;28;20043;-67
2023/07/19 02:16:19;;;;;;;4.70;1.67;;;16.10;99.90;;;;;;5055940;28;20352;-67
2023/07/19 02:18:44;;;;;;;4.07;1.35;;;16.10;99.90;;;;;;5073528;28;20138;-67
2023/07/19 02:21:10;;;;;;;3.33;2.13;;;16.10;99.90;;;;;;5091330;28;20046;-67
2023/07/19 02:23:36;;;;;;;4.43;2.08;;;16.00;99.90;;;;;;5090782;28;20044;-67
2023/07/19 02:26:02;;;;;;;4.88;2.63;;;16.00;99.90;;;;;;5073016;28;20404;-67
2023/07/19 02:28:28;;;;;;;5.30;2.55;;;16.00;99.90;;;;;;5073049;28;20419;-67
2023/07/19 02:30:53;;;;;;;3.67;2.00;;;16.00;99.90;;;;;;5072813;28;20032;-67
2023/07/19 02:33:20;;;;;;;6.80;2.15;;;15.90;99.90;;;;;;5072933;28;20119;-67
2023/07/19 02:35:54;;;;;;;3.08;2.08;;;15.90;99.90;;;;;;5072493;28;20040;-67
2023/07/19 02:38:20;;;;;;;4.32;2.20;;;15.90;99.90;;;;;;5072441;28;20043;-67
2023/07/19 02:40:47;;;;;;;2.00;1.30;;;15.90;99.90;;;;;;5091109;28;20040;-67
2023/07/19 02:43:13;;;;;;;3.65;1.83;;;15.90;99.90;;;;;;5072322;28;20052;-67
2023/07/19 02:45:39;;;;;;;2.75;1.90;;;15.80;99.90;;;;;;5063495;28;20059;-67
2023/07/19 02:48:05;;;;;;;5.25;2.13;;;15.80;99.90;;;;;;5036123;28;20095;-67
2023/07/19 02:50:31;;;;;;;2.67;1.77;;;15.80;99.90;;;;;;5052285;28;20048;-67
2023/07/19 02:52:57;;;;;;;3.28;1.45;;;15.80;99.90;;;;;;5052617;28;20865;-67
2023/07/19 02:55:23;;;;;;;3.53;1.98;;;15.80;99.90;;;;;;5052698;28;20041;-67
2023/07/19 02:57:49;;;;;;;2.80;1.85;;;15.80;99.90;;;;;;5052306;28;20040;-67
2023/07/19 03:00:15;;;;;;;2.45;1.48;;;15.80;99.90;;;;;;5066429;28;20419;-67
2023/07/19 03:02:41;;;;;;;3.20;2.05;;;15.80;99.90;;;;;;5073059;28;20055;-67
2023/07/19 03:05:07;;;;;;;4.15;1.85;;;15.80;99.90;;;;;;5071702;28;20551;-67
2023/07/19 03:07:33;;;;;;;3.33;1.75;;;15.80;99.90;;;;;;5090385;28;20115;-67
2023/07/19 03:09:59;;;;;;;3.35;2.15;;;15.80;99.90;;;;;;5072276;28;20155;-67
2023/07/19 03:12:25;;;;;;;3.85;2.15;;;15.80;99.90;;;;;;5071954;28;20427;-67
2023/07/19 03:14:51;;;;;;;4.93;2.25;;;15.80;99.90;;;;;;5072186;28;20040;-67
2023/07/19 03:17:17;;;;;;;3.35;1.65;;;15.80;99.90;;;;;;5072409;28;20075;-67
2023/07/19 03:19:47;;;;;;;3.15;2.28;;;15.80;99.90;;;;;;5071836;28;20488;-67
2023/07/19 03:22:12;;;;;;;;;;;15.80;99.90;;;;;;5055716;28;20040;-67
2023/07/19 03:24:38;;;;;;;4.47;2.30;;;15.80;99.90;;;;;;5054749;28;19924;-67
2023/07/19 03:27:04;;;;;;;6.55;2.72;;;15.80;99.90;;;;;;5071730;28;20044;-67
2023/07/19 03:29:30;;;;;;;7.63;2.00;;;15.90;99.90;;;;;;5072027;28;20036;-67
2023/07/19 03:31:56;;;;;;;4.75;2.53;;;15.90;99.90;;;;;;5071215;28;20043;-67
2023/07/19 03:34:22;;;;;;;4.65;2.30;;;15.90;99.90;;;;;;5090102;28;20039;-67
2023/07/19 03:36:47;;;;;;;5.05;2.35;;;15.90;99.90;;;;;;5071544;28;20106;-67
2023/07/19 03:39:13;;;;;;;4.05;1.73;;;15.90;99.90;;;;;;5071191;28;20102;-67
2023/07/19 03:41:39;;;;;;;4.00;2.13;;;15.90;99.90;;;;;;5071622;28;20043;-67
2023/07/19 03:44:05;;;;;;;3.80;2.85;;;16.00;99.90;;;;;;5089686;28;20040;-67
2023/07/19 03:46:31;;;;;;;3.42;2.00;;;16.00;99.90;;;;;;5071198;28;20036;-67
2023/07/19 03:48:56;;;;;;;5.05;2.72;;;16.00;99.90;;;;;;5071516;28;20550;-68
2023/07/19 03:51:22;;;;;;;5.82;2.80;;;16.10;99.90;;;;;;5067906;28;20068;-67
2023/07/19 03:53:48;;;;;;;6.40;2.55;;;16.10;99.90;;;;;;5069032;28;20040;-68
2023/07/19 03:56:14;;;;;;;2.78;1.75;;;16.10;99.90;;;;;;5051846;28;20256;-67
2023/07/19 03:58:43;;;;;;;4.93;2.20;;;16.10;99.90;;;;;;5070137;28;20420;-67
2023/07/19 04:01:08;;;;;;;5.15;2.05;;;16.10;99.90;;;;;;5054227;28;20082;-67
2023/07/19 04:03:34;;;;;;;3.83;2.42;;;16.10;99.90;;;;;;5071365;28;20072;-67
2023/07/19 04:06:00;;;;;;;2.83;1.75;;;16.20;99.90;;;;;;5089476;28;20415;-67
2023/07/19 04:08:26;;;;;;;3.08;2.03;;;16.20;99.90;;;;;;5070949;28;20032;-67
2023/07/19 04:10:51;;;;;;;4.03;2.28;;;16.30;99.90;;;;;;5071423;28;20536;-67
2023/07/19 04:13:17;;;;;;;4.53;2.33;;;16.30;99.90;;;;;;5054851;28;20123;-67
2023/07/19 04:15:43;;;;;;;4.80;2.25;;;16.30;99.90;;;;;;5088933;28;20397;-67
2023/07/19 04:18:09;;;;;;;2.00;1.30;;;16.40;99.90;;;;;;5071535;28;20139;-67
2023/07/19 04:20:36;;;;;;;3.75;1.95;;;16.40;99.90;;;;;;5089264;28;20599;-67
2023/07/19 04:23:03;;;;;;;3.60;2.10;;;16.40;99.90;;;;;;5089544;28;20067;-68
2023/07/19 04:25:30;;;;;;;3.97;1.88;;;16.40;99.90;;;;;;5054135;28;20048;-68
2023/07/19 04:27:56;;;;;;;3.13;1.60;;;16.40;99.90;;;;;;5070617;28;20052;-68
2023/07/19 04:30:22;;;;;;;4.38;1.98;;;16.40;99.90;;;;;;5071088;28;20093;-67
2023/07/19 04:32:51;;;;;;;3.13;1.60;;;16.40;99.90;;;;;;5070889;28;20048;-66
2023/07/19 04:35:17;;;;;;;8.80;1.88;;;16.50;99.90;;;;;;5050795;28;20044;-68
2023/07/19 04:37:43;;;;;;;3.92;1.52;;;16.40;99.90;;;;;;5074868;28;20097;-68
2023/07/19 04:40:09;;;;;;;2.42;1.40;;;16.50;99.90;;;;;;5071040;28;20470;-68
2023/07/19 04:42:35;;;;;;;3.03;1.70;;;16.50;99.90;;;;;;5070538;28;20069;-68
2023/07/19 04:45:01;;;;;;;2.38;1.60;;;16.40;99.90;;;;;;5089099;28;20048;-68
2023/07/19 04:47:28;;;;;;;5.95;1.65;;;16.50;99.90;;;;;;5069377;28;20089;-68
2023/07/19 04:49:53;;;;;;;3.00;1.27;;;16.40;99.90;;;;;;5050305;28;20116;-68
2023/07/19 04:52:19;;;;;;;2.85;1.88;;;16.40;99.90;;;;;;5069010;28;20175;-68
2023/07/19 04:54:47;;;;;;;1.98;1.15;;;16.40;99.90;;;;;;5050977;28;20064;-68
2023/07/19 04:57:13;;;;;;;1.67;1.23;;;16.40;99.90;;;;;;5087771;28;20047;-68
2023/07/19 04:59:39;;;;;;;2.75;1.33;;;16.40;99.90;;;;;;5079982;28;20395;-68
2023/07/19 05:02:05;;;;;;;2.22;1.30;;;16.40;99.90;;;;;;5111550;28;20046;-68
2023/07/19 05:04:31;;;;;;;3.92;0.95;;;16.30;99.90;;;;;;5077534;28;20109;-68
2023/07/19 05:06:57;;;;;;;1.98;0.88;;;16.40;99.90;;;;;;5094773;28;20039;-68
2023/07/19 05:09:23;;;;;;;1.55;1.10;;;16.30;99.90;;;;;;5074526;28;20502;-68
2023/07/19 05:11:49;;;;;;;2.60;1.08;;;16.30;99.90;;;;;;5074205;28;20142;-68
2023/07/19 05:14:15;;;;;;;4.45;1.42;;;16.30;99.90;;;;;;5074460;28;20547;-68
2023/07/19 05:16:41;;;;;;;2.90;1.00;;;16.30;99.90;;;;;;5057458;28;20043;-68
2023/07/19 05:19:06;;;;;;;3.42;1.10;;;16.30;99.90;;;;;;5057875;28;20079;-68
2023/07/19 05:21:32;;;;;;;3.33;0.80;;;16.30;99.90;;;;;;5057734;28;20109;-68
2023/07/19 05:23:58;;;;;;;3.85;1.10;;;16.40;99.90;;;;;;5057556;28;20043;-68
2023/07/19 05:26:24;;;;;;;2.08;1.17;;;16.30;99.90;;;;;;5073941;28;20129;-68
2023/07/19 05:28:50;;;;;;;1.30;1.15;;;16.30;99.90;;;;;;5092320;28;20075;-68
2023/07/19 05:31:16;;;;;;;2.13;1.25;;;16.40;99.90;;;;;;5073723;28;20119;-68
2023/07/19 05:33:42;;;;;;;2.72;0.90;;;16.40;99.90;;;;;;5057588;28;20101;-67
2023/07/19 05:36:08;;;;;;;4.57;0.80;;;16.40;99.90;;;;;;5074340;28;20039;-67
2023/07/19 05:38:34;;;;;;;0.85;0.40;;;16.50;99.90;;;;;;5073435;28;20400;-68
2023/07/19 05:41:01;;;;;;;2.33;1.08;;;16.50;99.90;;;;;;5092296;28;20043;-66
2023/07/19 05:43:27;;;;;;;0.90;0.60;;;16.50;99.90;;;;;;5074464;28;20050;-68
2023/07/19 05:45:53;;;;;;;1.08;0.52;;;16.50;99.90;;;;;;5054410;28;20423;-69
2023/07/19 05:48:19;;;;;;;1.15;0.50;;;16.60;99.90;;;;;;5054885;28;20037;-69
2023/07/19 05:50:45;;;;;;;1.27;0.57;;;16.60;99.90;;;;;;5071881;28;20077;-69
2023/07/19 05:53:11;;;;;;;1.20;0.57;;;16.70;99.90;;;;;;5053322;28;20416;-69
2023/07/19 05:55:38;;;;;;;1.42;0.88;;;16.70;99.90;;;;;;5057027;28;20044;-68
2023/07/19 05:58:04;;;;;;;0.93;0.60;;;16.70;99.90;;;;;;5091829;28;20154;-68
2023/07/19 06:00:30;;;;;;;4.35;0.68;;;16.70;99.90;;;;;;5089255;28;20114;-68
2023/07/19 06:02:55;;;;;;;1.35;0.65;;;16.70;99.90;;;;;;5112070;28;20035;-68
2023/07/19 06:05:24;;;;;;;1.05;0.47;;;16.70;99.90;;;;;;5093908;28;20036;-68
2023/07/19 06:07:50;;;;;;;1.50;0.50;;;16.70;99.90;;;;;;5068553;28;20032;-68
2023/07/19 06:10:16;;;;;;;2.40;0.80;;;16.80;99.90;;;;;;5056757;28;20119;-68
2023/07/19 06:12:45;;;;;;;1.73;0.60;;;16.80;99.90;;;;;;5090233;28;20119;-68
2023/07/19 06:15:11;;;;;;;1.30;0.60;;;16.80;99.90;;;;;;5073563;28;20039;-68
2023/07/19 06:17:37;;;;;;;1.05;0.50;;;16.80;99.90;;;;;;5056816;28;20412;-68
2023/07/19 06:20:04;;;;;;;0.70;0.40;;;16.80;99.90;;;;;;5072956;28;20046;-68
2023/07/19 06:22:31;;;;;;;1.00;0.52;;;16.80;99.90;;;;;;5073293;28;20036;-69
2023/07/19 06:25:00;;;;;;;2.63;0.75;;;16.80;99.90;;;;;;5073147;28;20047;-69
2023/07/19 06:27:26;;;;;;;1.43;0.50;;;16.80;99.90;;;;;;5071227;28;20090;-68
2023/07/19 06:29:51;;;;;;;1.15;0.57;;;16.80;99.90;;;;;;5092102;28;20040;-68
2023/07/19 06:32:17;;;;;;;1.92;0.57;;;16.80;99.90;;;;;;5074009;28;20044;-68
2023/07/19 06:34:43;;;;;;;0.63;0.50;;;16.80;99.90;;;;;;5073507;28;20036;-68
2023/07/19 06:37:09;;;;;;;1.13;0.68;;;16.80;99.90;;;;;;5074090;28;20697;-68
2023/07/19 06:39:35;;;;;;;2.90;0.65;;;16.80;99.90;;;;;;5073917;28;20499;-67
2023/07/19 06:42:00;;;;;;;1.52;0.70;;;16.80;99.90;;;;;;5073176;28;20056;-67
2023/07/19 06:44:29;;;;;;;1.57;0.73;;;16.80;99.90;;;;;;5073324;28;20036;-68
2023/07/19 06:46:55;;;;;;;0.98;0.43;;;16.80;99.90;;;;;;5090463;28;20624;-67
2023/07/19 06:49:21;;;;;;;1.73;1.08;;;16.80;99.90;;;;;;5073341;28;20447;-68
2023/07/19 06:51:48;;;;;;;4.78;1.23;;;16.80;99.90;;;;;;5036117;28;20094;-68
2023/07/19 06:54:14;;;;;;;1.50;0.80;;;16.80;99.90;;;;;;5052661;28;20102;-68
2023/07/19 06:56:39;;;;;;;2.55;1.05;;;16.80;99.90;;;;;;5051775;28;20471;-68
2023/07/19 06:59:05;;;;;;;1.15;0.70;;;16.80;99.90;;;;;;5041245;28;20044;-67
2023/07/19 07:01:31;;;;;;;1.15;0.70;;;16.80;99.90;;;;;;5075081;28;20047;-67
2023/07/19 07:03:57;;;;;;;2.75;1.00;;;16.90;99.90;;;;;;5051840;28;20152;-67
2023/07/19 07:06:23;;;;;;;2.28;0.93;;;16.90;99.90;;;;;;5070562;28;20416;-67
2023/07/19 07:08:48;;;;;;;2.80;1.05;;;16.90;99.90;;;;;;5067515;28;20094;-68
2023/07/19 07:11:14;;;;;;;1.17;0.65;;;16.90;99.90;;;;;;5069014;28;20847;-68
2023/07/19 07:13:40;;;;;;;1.45;0.73;;;16.90;99.90;;;;;;5067532;28;20119;-68
2023/07/19 07:16:06;;;;;;;1.90;0.52;;;16.90;99.90;;;;;;5089854;28;20404;-68
2023/07/19 07:18:32;;;;;;;4.32;0.80;;;16.90;99.90;;;;;;5090120;28;20040;-68
2023/07/19 07:20:58;;;;;;;1.58;0.70;;;16.90;99.90;;;;;;5070862;28;20542;-69
2023/07/19 07:23:24;;;;;;;1.23;0.65;;;16.90;99.90;;;;;;5084767;28;20032;-68
2023/07/19 07:25:53;;;;;;;1.55;0.77;;;16.90;99.90;;;;;;5051633;28;20056;-69
2023/07/19 07:28:19;;;;;;;;;;;16.90;99.90;;;;;;5072047;28;20496;-68
2023/07/19 07:30:45;;;;;;;4.72;0.82;;;16.90;99.90;;;;;;5089363;28;19924;-68
2023/07/19 07:33:11;;;;;;;1.25;0.75;;;16.90;99.90;;;;;;5072066;28;20028;-68
2023/07/19 07:35:37;;;;;;;2.00;0.90;;;17.00;99.90;;;;;;5089876;28;20072;-69
2023/07/19 07:38:03;;;;;;;1.35;0.85;;;17.00;99.90;;;;;;5054605;28;20044;-69
2023/07/19 07:40:29;;;;;;;0.98;0.65;;;17.10;99.90;;;;;;5071312;28;20044;-68
2023/07/19 07:42:55;;;;;;;1.23;0.70;;;17.10;99.90;;;;;;5071527;28;20135;-67
2023/07/19 07:45:21;;;;;;;1.48;0.63;;;17.20;99.90;;;;;;5074672;28;20048;-67
2023/07/19 07:47:47;;;;;;;3.08;1.30;;;17.30;99.90;;;;;;5051545;28;20032;-67
2023/07/19 07:50:13;;;;;;;3.80;0.85;;;17.30;99.90;;;;;;5069427;28;20435;-67
2023/07/19 07:52:39;;;;;;;1.67;0.90;;;17.30;99.90;;;;;;5050693;28;20041;-68
2023/07/19 07:55:06;;;;;;;1.02;0.70;;;17.40;99.90;;;;;;5051564;28;20040;-68
2023/07/19 07:57:37;;;;;;;1.75;0.90;;;17.40;99.90;;;;;;5051386;28;20049;-67
2023/07/19 08:00:11;;;;;;;2.15;0.80;;;17.60;99.90;;;;;;5081737;28;20079;-67
2023/07/19 08:02:38;;;;;;;1.63;0.80;;;17.60;99.90;;;;;;5091760;28;20047;-67
2023/07/19 08:05:05;;;;;;;2.08;1.15;;;17.80;99.90;;;;;;5074061;28;20035;-67
2023/07/19 08:07:31;;;;;;;2.25;1.00;;;18.00;99.90;;;;;;5086372;28;20036;-67
2023/07/19 08:09:56;;;;;;;1.25;0.63;;;18.20;99.90;;;;;;5071492;28;20063;-68
2023/07/19 08:12:24;;;;;;;3.58;0.85;;;18.40;99.90;;;;;;5089471;28;20361;-69
2023/07/19 08:14:50;;;;;;;1.70;0.80;;;18.50;99.90;;;;;;5090290;28;20044;-69
2023/07/19 08:17:15;;;;;;;2.55;1.13;;;18.40;99.90;;;;;;5089750;28;20036;-69
2023/07/19 08:19:41;;;;;;;2.78;1.33;;;18.30;99.90;;;;;;5070601;28;20073;-69
2023/07/19 08:22:22;;;;;;;1.80;0.95;;;18.30;99.90;;;;;;5070832;28;20131;-68
2023/07/19 08:24:48;;;;;;;2.50;1.38;;;18.20;99.90;;;;;;5070854;28;20044;-69
2023/07/19 08:27:14;;;;;;;1.23;0.60;;;18.20;99.90;;;;;;5070008;28;20056;-68
2023/07/19 08:29:40;;;;;;;1.30;0.70;;;18.20;99.90;;;;;;5056313;28;20044;-69
2023/07/19 08:32:06;;;;;;;1.83;0.82;;;18.20;99.90;;;;;;5068825;28;20123;-69
2023/07/19 08:34:31;;;;;;;1.58;0.80;;;18.20;99.90;;;;;;5033860;28;20131;-68
2023/07/19 08:36:57;;;;;;;1.88;0.73;;;18.20;99.90;;;;;;5052827;28;20488;-68
2023/07/19 08:39:23;;;;;;;3.97;0.98;;;18.30;99.90;;;;;;5073002;28;20175;-68
2023/07/19 08:41:49;;;;;;;2.58;1.02;;;18.30;99.90;;;;;;5070469;28;20044;-67
2023/07/19 08:44:16;;;;;;;1.63;0.80;;;18.30;99.90;;;;;;5092984;28;20048;-67
2023/07/19 08:46:43;;;;;;;1.33;0.82;;;18.50;99.90;;;;;;5092438;28;20036;-68
2023/07/19 08:49:09;;;;;;;1.80;0.85;;;18.60;99.90;;;;;;5058508;28;20036;-67
2023/07/19 08:51:38;;;;;;;3.38;0.98;;;18.80;99.90;;;;;;5092857;28;20043;-66
2023/07/19 08:54:04;;;;;;;1.77;0.80;;;19.30;99.90;;;;;;5074438;28;20035;-67
2023/07/19 08:56:31;;;;;;;1.48;0.65;;;20.00;99.90;;;;;;5092949;28;20396;-67
2023/07/19 08:58:57;;;;;;;2.25;0.47;;;20.40;99.90;;;;;;5074483;28;20074;-66
2023/07/19 09:01:23;;;;;;;0.57;0.32;;;20.40;99.90;;;;;;5090982;28;20044;-67
2023/07/19 09:03:49;;;;;;;1.45;0.60;;;20.30;99.90;;;;;;5091363;28;20050;-67
2023/07/19 09:06:25;;;;;;;2.03;0.75;;;20.10;99.90;;;;;;5091732;28;20047;-66
2023/07/19 09:08:52;;;;;;;0.50;0.38;;;20.00;99.90;;;;;;5061339;28;20052;-67
2023/07/19 09:11:21;;;;;;;0.85;0.32;;;19.80;99.90;;;;;;5073833;28;20431;-67
2023/07/19 09:13:54;;;;;;;1.58;0.40;;;19.60;99.90;;;;;;5054415;28;20095;-67
2023/07/19 09:16:30;;;;;;;1.00;0.50;;;19.50;99.90;;;;;;5054130;28;20040;-68
2023/07/19 09:18:57;;;;;;;2.80;0.57;;;19.40;99.90;;;;;;5043145;28;20032;-67
2023/07/19 09:21:30;;;;;;;0.93;0.43;;;19.30;99.90;;;;;;5074306;28;20040;-67
2023/07/19 09:23:56;;;;;;;2.08;0.77;;;19.20;99.90;;;;;;5073469;28;20043;-67
2023/07/19 09:26:22;;;;;;;3.13;0.60;;;19.30;99.90;;;;;;5092603;28;20102;-66
2023/07/19 09:28:51;;;;;;;0.68;0.38;;;19.50;99.90;;;;;;5072165;28;20048;-67
2023/07/19 09:31:17;;;;;;;2.72;0.82;;;19.60;99.90;;;;;;5073084;28;20033;-70
2023/07/19 09:33:44;;;;;;;1.50;0.47;;;19.70;99.90;;;;;;5072160;28;20048;-68
2023/07/19 09:36:16;;;;;;;0.98;0.47;;;19.80;99.90;;;;;;5071491;28;20048;-66
2023/07/19 09:38:41;;;;;;;1.55;0.82;;;19.80;99.90;;;;;;5091975;28;20086;-66
2023/07/19 09:41:07;;;;;;;1.63;0.70;;;19.80;99.90;;;;;;5072466;28;20075;-65
2023/07/19 09:43:34;;;;;;;1.35;0.40;;;19.90;99.90;;;;;;5090186;28;20070;-65
2023/07/19 09:46:01;;;;;;;1.50;0.50;;;19.90;99.90;;;;;;5073727;28;20040;-67
2023/07/19 09:48:28;;;;;;;0.77;0.68;;;20.00;99.90;;;;;;5057004;28;20511;-66
2023/07/19 09:51:01;;;;;;;1.85;0.40;;;19.90;99.90;;;;;;5073305;28;20036;-65
2023/07/19 09:53:28;;;;;;;0.73;0.50;;;19.90;99.90;;;;;;5073678;28;20543;-65
2023/07/19 09:55:55;;;;;;;2.10;0.73;;;19.90;99.90;;;;;;5073523;28;20048;-67
2023/07/19 09:58:22;;;;;;;2.10;0.70;;;19.90;99.90;;;;;;5072952;28;20040;-67
2023/07/19 10:00:48;;;;;;;0.60;0.40;;;20.10;99.90;;;;;;5089167;28;20118;-65
2023/07/19 10:03:19;;;;;;;0.75;0.43;;;20.30;99.90;;;;;;5090604;28;20043;-65
2023/07/19 10:05:45;;;;;;;1.10;0.40;;;20.70;99.90;;;;;;5071792;28;20047;-65
2023/07/19 10:08:11;;;;;;;1.95;0.52;;;21.00;99.90;;;;;;5072448;28;20240;-66
2023/07/19 10:10:41;;;;;;;0.57;0.20;;;21.00;99.90;;;;;;5052641;28;20048;-66
2023/07/19 10:13:08;;;;;;;0.93;0.22;;;21.10;99.90;;;;;;5071489;28;20037;-66
2023/07/19 10:15:37;;;;;;;1.95;0.35;;;21.00;99.90;;;;;;5062704;28;20087;-65
2023/07/19 10:18:10;;;;;;;;;;;20.90;99.90;;;;;;5092077;28;20040;-65
2023/07/19 10:20:36;;;;;;;1.02;0.40;;;21.20;99.90;;;;;;5057510;28;20010;-65
2023/07/19 10:23:06;;;;;;;0.88;0.43;;;21.70;99.90;;;;;;5073641;28;20602;-65
2023/07/19 10:25:38;;;;;;;0.68;0.20;;;22.30;99.90;;;;;;5091501;28;20579;-65
2023/07/19 10:28:12;;;;;;;0.98;0.50;;;22.40;99.90;;;;;;5057711;28;20056;-67
2023/07/19 10:30:52;;;;;;;1.13;0.30;;;22.30;99.90;;;;;;5057629;28;20048;-65
2023/07/19 10:33:21;;;;;;;0.25;0.20;;;21.80;99.90;;;;;;5066014;28;20049;-65
2023/07/19 10:36:03;;;;;;;1.10;0.65;;;21.40;99.90;;;;;;5054120;28;20138;-65
2023/07/19 10:38:30;;;;;;;2.78;0.50;;;21.10;99.90;;;;;;5054211;28;20405;-65
2023/07/19 10:41:01;;;;;;;0.65;0.32;;;21.20;99.90;;;;;;5053554;28;20118;-66
2023/07/19 10:43:30;;;;;;;0.85;0.40;;;21.30;99.90;;;;;;5053707;28;20048;-65
2023/07/19 10:45:59;;;;;;;1.13;0.70;;;21.20;99.90;;;;;;5053065;28;20041;-65
2023/07/19 10:48:29;;;;;;;1.67;0.60;;;21.10;99.90;;;;;;5071951;28;20037;-65
2023/07/19 10:51:03;;;;;;;0.93;0.50;;;21.10;99.90;;;;;;5053812;28;20393;-65
2023/07/19 10:53:32;;;;;;;0.90;0.40;;;21.10;99.90;;;;;;5052960;28;20483;-65
2023/07/19 10:56:01;;;;;;;0.60;0.40;;;21.20;99.90;;;;;;5053822;28;20123;-65
2023/07/19 10:58:26;;;;;;;0.60;0.30;;;21.30;99.90;;;;;;5070873;28;20040;-65
2023/07/19 11:00:54;;;;;;;0.90;0.52;;;21.50;99.90;;;;;;5089480;28;20097;-66
2023/07/19 11:03:24;;;;;;;1.80;0.30;;;21.70;99.90;;;;;;5088766;28;20036;-65
2023/07/19 11:05:51;;;;;;;2.25;0.40;;;21.90;99.90;;;;;;5053126;28;20072;-66
2023/07/19 11:08:25;;;;;;;2.10;0.40;;;21.90;99.90;;;;;;5052397;28;20492;-65
2023/07/19 11:10:52;;;;;;;0.85;0.43;;;21.90;99.90;;;;;;5053380;28;20086;-65
2023/07/19 11:13:20;;;;;;;0.73;0.30;;;21.90;99.90;;;;;;5091369;28;20420;-66
2023/07/19 11:15:51;;;;;;;0.77;0.45;;;22.10;99.90;;;;;;5072175;28;20472;-65
2023/07/19 11:18:34;;;;;;;1.23;0.75;;;22.10;99.90;;;;;;5072328;28;20071;-64
2023/07/19 11:21:00;;;;;;;1.45;0.60;;;21.90;99.90;;;;;;5089403;28;20032;-65
2023/07/19 11:23:28;;;;;;;0.98;0.55;;;21.80;99.90;;;;;;5089896;28;20443;-64
2023/07/19 11:26:05;;;;;;;1.63;0.98;;;21.70;99.90;;;;;;5071402;28;20058;-65
2023/07/19 11:28:58;;;;;;;1.33;0.60;;;21.60;99.90;;;;;;5089045;28;20119;-65
2023/07/19 11:31:35;;;;;;;1.77;1.20;;;21.50;99.90;;;;;;5068016;28;20114;-64
2023/07/19 11:34:14;;;;;;;2.53;0.50;;;21.40;99.90;;;;;;5071832;28;20064;-64
2023/07/19 11:36:45;;;;;;;1.02;0.70;;;21.40;99.90;;;;;;5054968;28;20039;-65
2023/07/19 11:39:18;;;;;;;1.00;0.52;;;21.20;99.90;;;;;;5072845;28;20036;-66
2023/07/19 11:41:45;;;;;;;1.05;0.40;;;20.90;99.90;;;;;;5072152;28;20071;-64
2023/07/19 11:44:19;;;;;;;1.05;0.68;;;20.70;99.90;;;;;;5072493;28;20044;-65
2023/07/19 11:46:47;;;;;;;2.40;0.90;;;20.50;99.90;;;;;;5055547;28;20050;-64
2023/07/19 11:49:13;;;;;;;1.20;0.57;;;20.40;99.90;;;;;;5055036;28;20098;-65
2023/07/19 11:51:40;;;;;;;2.50;1.00;;;20.20;99.90;;;;;;5072385;28;20032;-66
2023/07/19 11:54:07;;;;;;;3.22;1.15;;;20.10;99.90;;;;;;5086921;28;20039;-66
2023/07/19 11:56:35;;;;;;;2.75;1.30;;;20.00;99.90;;;;;;5069505;28;20040;-65
2023/07/19 11:59:01;;;;;;;3.03;1.25;;;20.00;99.90;;;;;;5039853;28;20059;-67
2023/07/19 12:01:27;;;;;;;2.53;1.20;;;20.10;99.90;;;;;;5060629;28;20071;-67
2023/07/19 12:03:53;;;;;;;1.35;0.95;;;20.20;99.90;;;;;;5077399;28;20427;-67
2023/07/19 12:06:19;;;;;;;2.50;1.13;;;20.20;99.90;;;;;;5055061;28;20038;-67
2023/07/19 12:08:45;;;;;;;2.88;1.42;;;20.10;99.90;;;;;;5089085;28;20411;-67
2023/07/19 12:11:11;;;;;;;1.98;0.85;;;20.10;99.90;;;;;;5069861;28;20515;-67
2023/07/19 12:13:37;;;;;;;2.03;1.35;;;20.00;99.90;;;;;;5054249;28;20571;-67
2023/07/19 12:16:04;;;;;;;3.38;1.05;;;20.00;99.90;;;;;;5070790;28;20133;-67
2023/07/19 12:18:30;;;;;;;3.42;1.10;;;19.90;99.90;;;;;;5069758;28;20103;-67
2023/07/19 12:20:56;;;;;;;2.15;1.00;;;19.80;99.90;;;;;;5054441;28;20047;-67
2023/07/19 12:23:23;;;;;;;2.25;1.30;;;19.80;99.90;;;;;;5051839;28;20098;-67
2023/07/19 12:25:50;;;;;;;1.70;0.80;;;19.90;99.90;;;;;;5071949;28;20052;-67
2023/07/19 12:28:22;;;;;;;1.45;0.75;;;20.00;99.90;;;;;;5053336;28;20046;-67
2023/07/19 12:30:48;;;;;;;1.90;1.05;;;20.20;99.90;;;;;;5051232;28;20044;-67
2023/07/19 12:33:14;;;;;;;1.65;1.00;;;20.30;99.90;;;;;;5051802;28;20076;-67
2023/07/19 12:35:40;;;;;;;4.18;1.13;;;20.40;99.90;;;;;;5051859;28;20087;-67
2023/07/19 12:38:06;;;;;;;2.33;1.25;;;20.40;99.90;;;;;;5050093;28;20106;-68
2023/07/19 12:40:33;;;;;;;2.00;0.90;;;20.30;99.90;;;;;;5063898;28;20039;-66
2023/07/19 12:42:59;;;;;;;2.80;1.40;;;20.20;99.90;;;;;;5072098;28;20044;-67
2023/07/19 12:45:25;;;;;;;2.20;1.00;;;20.00;99.90;;;;;;5071253;28;20098;-67
2023/07/19 12:47:51;;;;;;;4.40;1.10;;;20.00;99.90;;;;;;5072225;28;20037;-67